Time;durP1;ratioP1;P1;durP2;ratioP2;P2;SDS_P1;SDS_P2;PMS_P1;PMS_P2;Temp;Humidity;BMP_temperature;BMP_pressure;BME280_temperature;BME280_humidity;BME280_pressure;Samples;Min_cycle;Max_cycle;Signal;HPM_P1;HPM_P2
2022/04/27 00:00:34;;;;;;;6.37;4.50;;;8.10;99.90;;;;;;5076545;28;20170;-66
2022/04/27 00:03:02;;;;;;;7.43;4.77;;;8.10;99.90;;;;;;5079821;28;20494;-65
2022/04/27 00:05:28;;;;;;;6.30;4.27;;;8.00;99.90;;;;;;5080249;28;20232;-66
2022/04/27 00:07:54;;;;;;;6.33;4.33;;;8.00;99.90;;;;;;5080006;28;20177;-64
2022/04/27 00:10:19;;;;;;;5.87;4.07;;;7.90;99.90;;;;;;5079426;28;20587;-65
2022/04/27 00:12:45;;;;;;;6.27;3.90;;;7.80;99.90;;;;;;5080192;28;20164;-65
2022/04/27 00:15:12;;;;;;;5.60;4.13;;;7.90;99.90;;;;;;5079306;28;20692;-66
2022/04/27 00:17:38;;;;;;;4.80;4.00;;;8.00;99.90;;;;;;5062022;28;20541;-65
2022/04/27 00:20:05;;;;;;;5.87;4.13;;;7.90;99.90;;;;;;5079670;28;20193;-65
2022/04/27 00:22:30;;;;;;;7.67;4.73;;;7.90;99.90;;;;;;5080097;28;20166;-65
2022/04/27 00:25:02;;;;;;;7.40;4.03;;;7.80;99.90;;;;;;5079750;28;20175;-65
2022/04/27 00:27:28;;;;;;;6.87;4.03;;;7.80;99.90;;;;;;5079853;28;20175;-64
2022/04/27 00:29:54;;;;;;;4.53;3.80;;;7.90;99.90;;;;;;5080176;28;20201;-65
2022/04/27 00:32:20;;;;;;;5.23;4.13;;;7.70;99.90;;;;;;5079670;28;20199;-65
2022/04/27 00:34:45;;;;;;;5.07;3.77;;;7.50;99.90;;;;;;5079777;28;20673;-65
2022/04/27 00:37:11;;;;;;;19.80;10.07;;;7.60;99.90;;;;;;5080269;28;20254;-66
2022/04/27 00:39:36;;;;;;;14.90;7.20;;;7.60;99.90;;;;;;5077907;28;20708;-65
2022/04/27 00:42:20;;;;;;;7.33;3.77;;;7.60;99.90;;;;;;5080233;28;20310;-65
2022/04/27 00:44:46;;;;;;;4.67;3.53;;;7.50;99.90;;;;;;5080121;28;20163;-65
2022/04/27 00:47:16;;;;;;;7.57;4.07;;;7.50;99.90;;;;;;5063362;28;20175;-64
2022/04/27 00:49:45;;;;;;;4.67;3.50;;;7.50;99.90;;;;;;5080985;28;20255;-66
2022/04/27 00:52:13;;;;;;;6.13;4.10;;;7.50;99.90;;;;;;5046573;28;20289;-66
2022/04/27 00:54:40;;;;;;;4.73;3.53;;;7.40;99.90;;;;;;5080441;28;20198;-66
2022/04/27 00:57:07;;;;;;;5.73;4.13;;;7.30;99.90;;;;;;5085494;28;20217;-67
2022/04/27 00:59:33;;;;;;;5.27;3.60;;;7.30;99.90;;;;;;5097490;28;20253;-64
2022/04/27 01:01:59;;;;;;;4.77;3.80;;;7.20;99.90;;;;;;5084736;28;20250;-66
2022/04/27 01:04:24;;;;;;;4.40;3.87;;;7.20;99.90;;;;;;5079696;28;20161;-65
2022/04/27 01:06:50;;;;;;;5.27;3.80;;;7.20;99.90;;;;;;5079854;28;20470;-65
2022/04/27 01:09:18;;;;;;;6.23;3.87;;;7.10;99.90;;;;;;5061912;28;20190;-64
2022/04/27 01:11:44;;;;;;;5.23;3.67;;;7.10;99.90;;;;;;5077127;28;20156;-65
2022/04/27 01:14:10;;;;;;;6.50;3.70;;;7.10;99.90;;;;;;5076438;28;20225;-65
2022/04/27 01:16:36;;;;;;;5.80;4.47;;;7.10;99.90;;;;;;5066195;28;20193;-64
2022/04/27 01:19:02;;;;;;;6.77;3.80;;;7.00;99.90;;;;;;5083659;28;20578;-65
2022/04/27 01:21:28;;;;;;;4.70;4.20;;;7.00;99.90;;;;;;5081900;28;20162;-68
2022/04/27 01:23:54;;;;;;;6.87;4.97;;;7.00;99.90;;;;;;5078945;28;20253;-65
2022/04/27 01:26:20;;;;;;;5.83;4.50;;;7.00;99.90;;;;;;5077092;28;20166;-64
2022/04/27 01:28:46;;;;;;;6.30;4.63;;;6.90;99.90;;;;;;5075881;28;20156;-65
2022/04/27 01:31:12;;;;;;;6.97;4.83;;;6.90;99.90;;;;;;5075625;28;20165;-66
2022/04/27 01:33:38;;;;;;;6.57;5.00;;;6.70;99.90;;;;;;5076016;28;20188;-65
2022/04/27 01:36:09;;;;;;;4.80;3.80;;;6.70;99.90;;;;;;5075872;28;20169;-65
2022/04/27 01:38:39;;;;;;;6.10;3.93;;;6.70;99.90;;;;;;5057825;28;20668;-64
2022/04/27 01:41:05;;;;;;;9.00;4.60;;;6.80;99.90;;;;;;5075954;28;20163;-64
2022/04/27 01:43:33;;;;;;;5.90;4.33;;;6.80;99.90;;;;;;5076067;28;20281;-65
2022/04/27 01:45:59;;;;;;;4.63;3.70;;;6.70;99.90;;;;;;5075701;28;20484;-65
2022/04/27 01:48:26;;;;;;;7.43;4.80;;;6.80;99.90;;;;;;5057623;28;20176;-65
2022/04/27 01:50:52;;;;;;;6.00;4.60;;;6.70;99.90;;;;;;5075790;28;20193;-64
2022/04/27 01:56:03;;;;;;;7.70;5.30;;;6.70;99.90;;;;;;5075827;28;20198;-65
2022/04/27 01:58:28;;;;;;;5.63;4.67;;;6.70;99.90;;;;;;5075283;28;20550;-64
2022/04/27 02:00:54;;;;;;;6.70;4.80;;;6.50;99.90;;;;;;5076134;28;20200;-67
2022/04/27 02:03:21;;;;;;;4.33;3.60;;;6.60;99.90;;;;;;5078989;28;20173;-65
2022/04/27 02:05:47;;;;;;;4.63;4.10;;;6.70;99.90;;;;;;5061501;28;20178;-64
2022/04/27 02:08:13;;;;;;;7.03;4.57;;;6.60;99.90;;;;;;5075390;28;20164;-66
2022/04/27 02:10:39;;;;;;;6.97;4.93;;;6.70;99.90;;;;;;5075577;28;20164;-67
2022/04/27 02:13:07;;;;;;;6.60;4.53;;;6.70;99.90;;;;;;5075608;28;20194;-65
2022/04/27 02:15:33;;;;;;;7.27;5.00;;;6.60;99.90;;;;;;5075052;28;20167;-65
2022/04/27 02:17:59;;;;;;;4.93;3.90;;;6.60;99.90;;;;;;5075458;28;20164;-65
2022/04/27 02:20:25;;;;;;;5.97;4.37;;;6.60;99.90;;;;;;5075435;28;20166;-64
2022/04/27 02:22:51;;;;;;;5.57;4.27;;;6.50;99.90;;;;;;5074720;28;20163;-64
2022/04/27 02:25:18;;;;;;;7.83;4.50;;;6.50;99.90;;;;;;5074936;28;20540;-64
2022/04/27 02:27:43;;;;;;;7.07;5.00;;;6.50;99.90;;;;;;5075137;28;20176;-65
2022/04/27 02:30:10;;;;;;;7.73;5.27;;;6.50;99.90;;;;;;5075029;28;20615;-65
2022/04/27 02:32:37;;;;;;;5.37;3.87;;;6.50;99.90;;;;;;5057170;28;20541;-64
2022/04/27 02:35:03;;;;;;;6.00;4.97;;;6.50;99.90;;;;;;5075245;28;20226;-64
2022/04/27 02:37:30;;;;;;;7.27;4.80;;;6.40;99.90;;;;;;5074864;28;20176;-66
2022/04/27 02:39:56;;;;;;;5.77;4.83;;;6.40;99.90;;;;;;5074675;28;20158;-65
2022/04/27 02:42:22;;;;;;;7.43;5.07;;;6.40;99.90;;;;;;5074879;28;20169;-66
2022/04/27 02:44:48;;;;;;;6.67;4.70;;;6.30;99.90;;;;;;5074528;28;20262;-65
2022/04/27 02:47:14;;;;;;;4.40;3.77;;;6.10;99.90;;;;;;5057372;28;20177;-64
2022/04/27 02:52:24;;;;;;;6.33;4.83;;;6.10;99.90;;;;;;5074969;28;20280;-65
2022/04/27 02:54:50;;;;;;;7.87;5.37;;;6.10;99.90;;;;;;5075050;28;20282;-65
2022/04/27 02:57:16;;;;;;;7.43;5.23;;;6.10;99.90;;;;;;5074801;28;20181;-65
2022/04/27 02:59:42;;;;;;;6.50;4.73;;;6.00;99.90;;;;;;5075347;28;20215;-65
2022/04/27 03:02:08;;;;;;;7.63;5.27;;;5.90;99.90;;;;;;5074413;28;20170;-65
2022/04/27 03:04:34;;;;;;;6.33;4.90;;;5.90;99.90;;;;;;5074407;28;20195;-64
2022/04/27 03:07:00;;;;;;;7.63;5.47;;;5.80;99.90;;;;;;5074457;28;20502;-64
2022/04/27 03:09:25;;;;;;;6.77;5.47;;;5.80;99.90;;;;;;5074883;28;20160;-64
2022/04/27 03:11:52;;;;;;;7.33;4.93;;;5.90;99.90;;;;;;5051634;28;20221;-65
2022/04/27 03:14:18;;;;;;;10.23;5.23;;;6.10;99.90;;;;;;5073792;28;20183;-64
2022/04/27 03:16:45;;;;;;;9.43;6.03;;;6.00;99.90;;;;;;5074592;28;20159;-65
2022/04/27 03:19:11;;;;;;;11.80;5.53;;;6.10;99.90;;;;;;5075583;28;20152;-65
2022/04/27 03:21:37;;;;;;;9.03;5.80;;;6.10;99.90;;;;;;5075891;28;20170;-65
2022/04/27 03:24:03;;;;;;;7.93;4.97;;;6.20;99.90;;;;;;5076280;28;20169;-66
2022/04/27 03:26:29;;;;;;;7.97;5.40;;;6.20;99.90;;;;;;5074335;28;20586;-65
2022/04/27 03:28:55;;;;;;;7.07;4.87;;;6.20;99.90;;;;;;5076827;28;20248;-67
2022/04/27 03:31:20;;;;;;;8.50;5.97;;;6.20;99.90;;;;;;5075558;28;20160;-64
2022/04/27 03:33:46;;;;;;;8.07;5.43;;;6.10;99.90;;;;;;5076141;28;20203;-64
2022/04/27 03:36:12;;;;;;;7.00;5.17;;;6.20;99.90;;;;;;5075204;28;20190;-67
2022/04/27 03:38:42;;;;;;;7.70;5.23;;;6.10;99.90;;;;;;5075323;28;20217;-64
2022/04/27 03:41:09;;;;;;;7.40;5.50;;;6.20;99.90;;;;;;5075851;28;20166;-65
2022/04/27 03:43:34;;;;;;;8.43;6.00;;;6.20;99.90;;;;;;5079193;28;20242;-64
2022/04/27 03:46:00;;;;;;;7.77;5.97;;;6.20;99.90;;;;;;5079317;28;20198;-65
2022/04/27 03:48:26;;;;;;;7.20;5.87;;;6.30;99.90;;;;;;5080004;28;20175;-65
2022/04/27 03:50:52;;;;;;;9.07;5.87;;;6.20;99.90;;;;;;5085363;28;20317;-66
2022/04/27 03:53:17;;;;;;;8.63;5.63;;;6.10;99.90;;;;;;5083760;28;20694;-66
2022/04/27 03:55:43;;;;;;;8.83;4.90;;;6.10;99.90;;;;;;5073710;28;20184;-66
2022/04/27 03:58:08;;;;;;;6.53;5.07;;;6.10;99.90;;;;;;5078486;28;20172;-65
2022/04/27 04:00:34;;;;;;;7.23;5.60;;;6.00;99.90;;;;;;5073754;28;20244;-65
2022/04/27 04:03:01;;;;;;;8.00;5.60;;;6.10;99.90;;;;;;5073329;28;20557;-66
2022/04/27 04:05:27;;;;;;;7.00;5.20;;;6.00;99.90;;;;;;5073067;28;20164;-64
2022/04/27 04:07:53;;;;;;;9.03;5.80;;;6.00;99.90;;;;;;5073136;28;20252;-65
2022/04/27 04:10:18;;;;;;;7.70;5.90;;;6.00;99.90;;;;;;5073717;28;20195;-64
2022/04/27 04:12:45;;;;;;;7.33;5.67;;;6.00;99.90;;;;;;5073755;28;20179;-64
2022/04/27 04:15:12;;;;;;;10.47;5.77;;;6.10;99.90;;;;;;5072846;28;20200;-65
2022/04/27 04:17:40;;;;;;;8.47;6.20;;;6.20;99.90;;;;;;5073933;28;20169;-66
2022/04/27 04:20:07;;;;;;;8.97;6.27;;;6.10;99.90;;;;;;5073012;28;20243;-66
2022/04/27 04:22:32;;;;;;;11.50;6.63;;;6.20;99.90;;;;;;5055402;28;20185;-65
2022/04/27 04:30:26;;;;;;;7.37;5.87;;;6.20;99.90;;;;;;5073611;28;20196;-65
2022/04/27 04:32:51;;;;;;;7.37;5.77;;;6.20;99.90;;;;;;5074622;28;20495;-66
2022/04/27 04:35:17;;;;;;;8.60;5.63;;;6.30;99.90;;;;;;5074534;28;20205;-64
2022/04/27 04:37:43;;;;;;;7.63;5.60;;;6.30;99.90;;;;;;5075250;28;20178;-65
2022/04/27 04:40:09;;;;;;;8.83;6.07;;;6.30;99.90;;;;;;5083439;28;20179;-66
2022/04/27 04:42:35;;;;;;;8.10;6.00;;;6.50;99.90;;;;;;5081436;28;20161;-66
2022/04/27 04:45:01;;;;;;;9.00;6.47;;;6.50;99.90;;;;;;5074043;28;20592;-63
2022/04/27 04:47:26;;;;;;;7.77;5.73;;;6.60;99.90;;;;;;5076791;28;20167;-65
2022/04/27 04:49:52;;;;;;;8.50;5.50;;;6.60;99.90;;;;;;5077750;28;20177;-65
2022/04/27 04:52:18;;;;;;;6.63;4.57;;;6.80;99.90;;;;;;5060915;28;20223;-64
2022/04/27 04:54:44;;;;;;;7.73;4.60;;;6.80;99.90;;;;;;5058964;28;20203;-65
2022/04/27 04:57:09;;;;;;;5.47;4.53;;;6.90;99.90;;;;;;5076685;28;20175;-65
2022/04/27 04:59:35;;;;;;;13.77;5.00;;;6.90;99.90;;;;;;5072360;28;20634;-65
2022/04/27 05:02:01;;;;;;;8.90;4.83;;;6.90;99.90;;;;;;5076215;28;20318;-65
2022/04/27 05:04:26;;;;;;;6.13;4.63;;;6.90;99.90;;;;;;5076584;28;20168;-64
2022/04/27 05:06:52;;;;;;;9.27;6.37;;;7.00;99.90;;;;;;5076523;28;20671;-65
2022/04/27 05:09:17;;;;;;;12.20;8.43;;;7.00;99.90;;;;;;5076625;28;20178;-63
2022/04/27 05:11:43;;;;;;;17.80;11.43;;;7.10;99.90;;;;;;5076956;28;20209;-66
2022/04/27 05:14:10;;;;;;;16.07;8.27;;;7.30;99.90;;;;;;5076761;28;20249;-65
2022/04/27 05:16:36;;;;;;;12.80;7.57;;;7.30;99.90;;;;;;5073251;28;20195;-64
2022/04/27 05:19:03;;;;;;;6.93;5.73;;;7.40;99.90;;;;;;5076535;28;20275;-63
2022/04/27 05:21:29;;;;;;;11.43;8.33;;;7.20;99.90;;;;;;5076848;28;20185;-66
2022/04/27 05:23:56;;;;;;;12.07;9.37;;;7.20;99.90;;;;;;5077946;28;20205;-64
2022/04/27 05:26:22;;;;;;;16.37;8.90;;;7.30;99.90;;;;;;5078799;28;20170;-66
2022/04/27 05:34:16;;;;;;;5.37;4.20;;;7.70;99.90;;;;;;5075842;28;20234;-64
2022/04/27 05:36:41;;;;;;;5.97;4.17;;;7.60;99.90;;;;;;5075992;28;20167;-65
2022/04/27 05:39:07;;;;;;;7.20;5.10;;;7.60;99.90;;;;;;5058327;28;20212;-66
2022/04/27 05:41:34;;;;;;;8.77;5.77;;;7.60;99.90;;;;;;5076120;28;20505;-66
2022/04/27 05:44:02;;;;;;;11.00;5.97;;;7.70;99.90;;;;;;5075880;28;20216;-65
2022/04/27 05:46:28;;;;;;;7.40;4.97;;;7.80;99.90;;;;;;5075687;28;20259;-66
2022/04/27 05:48:54;;;;;;;11.97;6.37;;;7.80;99.90;;;;;;5075923;28;20590;-65
2022/04/27 05:51:19;;;;;;;6.13;4.97;;;8.00;99.90;;;;;;5076213;28;20240;-66
2022/04/27 05:53:46;;;;;;;6.67;4.47;;;8.00;99.90;;;;;;5058411;28;20209;-65
2022/04/27 05:56:12;;;;;;;7.60;5.20;;;8.00;99.90;;;;;;5075334;28;20183;-65
2022/04/27 05:58:38;;;;;;;7.30;5.17;;;8.10;99.90;;;;;;5074962;28;20205;-65
2022/04/27 06:01:04;;;;;;;5.33;3.90;;;8.00;99.90;;;;;;5076203;28;20583;-65
2022/04/27 06:03:30;;;;;;;8.33;5.73;;;8.00;99.90;;;;;;5057710;28;20185;-66
2022/04/27 06:05:56;;;;;;;8.33;4.73;;;8.10;99.90;;;;;;5075524;28;20163;-65
2022/04/27 06:08:21;;;;;;;8.40;5.60;;;8.20;99.90;;;;;;5076052;28;20206;-64
2022/04/27 06:10:47;;;;;;;8.00;5.40;;;8.10;99.90;;;;;;5075177;28;20184;-64
2022/04/27 06:13:13;;;;;;;9.43;5.53;;;8.10;99.90;;;;;;5075427;28;20174;-66
2022/04/27 06:15:40;;;;;;;9.67;5.33;;;8.20;99.90;;;;;;5076795;28;20186;-66
2022/04/27 06:18:05;;;;;;;6.30;5.10;;;8.40;99.90;;;;;;5077545;28;20197;-65
2022/04/27 06:20:31;;;;;;;11.53;4.90;;;8.50;99.90;;;;;;5074928;28;20198;-65
2022/04/27 06:22:57;;;;;;;8.33;5.13;;;8.60;99.90;;;;;;5075689;28;20178;-65
2022/04/27 06:25:25;;;;;;;7.73;4.80;;;8.60;99.90;;;;;;5075582;28;20679;-65
2022/04/27 06:27:51;;;;;;;5.40;4.40;;;8.70;99.90;;;;;;5076203;28;20174;-65
2022/04/27 06:30:17;;;;;;;7.27;4.97;;;8.70;99.90;;;;;;5076884;28;20178;-65
2022/04/27 06:32:43;;;;;;;7.40;4.63;;;8.80;99.90;;;;;;5058916;28;20179;-65
2022/04/27 06:35:12;;;;;;;7.40;4.90;;;8.60;99.90;;;;;;5077886;28;20274;-66
2022/04/27 06:37:38;;;;;;;7.00;5.03;;;8.80;99.90;;;;;;5069434;28;20187;-65
2022/04/27 06:40:05;;;;;;;6.87;5.20;;;8.70;99.90;;;;;;5075512;28;20267;-64
2022/04/27 06:42:31;;;;;;;7.60;5.53;;;8.80;99.90;;;;;;5075808;28;20159;-65
2022/04/27 06:45:00;;;;;;;8.30;5.70;;;9.00;99.90;;;;;;5075567;28;20166;-65
2022/04/27 06:47:26;;;;;;;7.20;5.13;;;8.90;99.90;;;;;;5069820;28;20526;-64
2022/04/27 06:49:51;;;;;;;9.17;5.53;;;8.90;99.90;;;;;;5078628;28;20246;-66
2022/04/27 06:52:17;;;;;;;8.60;5.70;;;9.10;99.90;;;;;;5080143;28;20223;-65
2022/04/27 06:54:43;;;;;;;8.23;6.00;;;9.10;99.90;;;;;;5075757;28;20214;-65
2022/04/27 06:57:09;;;;;;;12.43;6.30;;;9.10;99.90;;;;;;5081019;28;20167;-66
2022/04/27 06:59:34;;;;;;;8.63;5.80;;;9.00;99.90;;;;;;5061073;28;20321;-66
2022/04/27 07:02:00;;;;;;;9.40;6.47;;;9.20;99.90;;;;;;5061683;28;20620;-65
2022/04/27 07:04:26;;;;;;;10.07;5.80;;;9.40;99.90;;;;;;5051639;28;20196;-64
2022/04/27 07:06:52;;;;;;;9.87;5.97;;;9.50;99.90;;;;;;5054115;28;20167;-64
2022/04/27 07:09:18;;;;;;;7.47;5.80;;;9.60;99.90;;;;;;5053724;28;20162;-64
2022/04/27 07:11:44;;;;;;;8.23;5.57;;;9.80;99.90;;;;;;5036291;28;20178;-66
2022/04/27 07:14:11;;;;;;;10.63;6.20;;;9.90;99.90;;;;;;5036590;28;20200;-64
2022/04/27 07:16:37;;;;;;;8.77;5.90;;;10.10;99.90;;;;;;5050131;28;20194;-66
2022/04/27 07:19:03;;;;;;;8.97;5.57;;;10.10;99.90;;;;;;5061801;28;20256;-64
2022/04/27 07:21:28;;;;;;;6.90;5.53;;;10.20;99.90;;;;;;5074824;28;20156;-64
2022/04/27 07:23:56;;;;;;;8.40;6.30;;;10.30;99.90;;;;;;5071420;28;20188;-65
2022/04/27 07:26:21;;;;;;;9.17;5.93;;;10.40;99.90;;;;;;5075807;28;20159;-67
2022/04/27 07:28:47;;;;;;;9.87;6.23;;;10.30;99.90;;;;;;5049152;28;20203;-64
2022/04/27 07:31:13;;;;;;;10.37;6.70;;;10.40;99.90;;;;;;5054661;28;20248;-66
2022/04/27 07:33:38;;;;;;;11.97;7.53;;;10.40;99.90;;;;;;5070069;28;20752;-65
2022/04/27 07:36:06;;;;;;;10.13;6.50;;;10.60;99.90;;;;;;5075155;28;20175;-64
2022/04/27 07:38:32;;;;;;;11.10;6.90;;;10.70;99.90;;;;;;5076482;28;20178;-66
2022/04/27 07:40:57;;;;;;;9.23;5.90;;;10.70;99.90;;;;;;5079592;28;20163;-65
2022/04/27 07:43:23;;;;;;;7.77;5.90;;;11.00;99.90;;;;;;5076793;28;20594;-66
2022/04/27 07:45:48;;;;;;;11.57;5.67;;;11.20;99.90;;;;;;5076424;28;20251;-64
2022/04/27 07:48:14;;;;;;;8.00;6.27;;;11.10;99.90;;;;;;5075867;28;20166;-64
2022/04/27 07:50:40;;;;;;;7.40;5.73;;;11.10;99.90;;;;;;5076649;28;20184;-65
2022/04/27 07:53:06;;;;;;;12.33;6.93;;;11.20;99.90;;;;;;5078182;28;20172;-65
2022/04/27 07:55:32;;;;;;;11.33;7.63;;;11.30;99.90;;;;;;5076698;28;20251;-63
2022/04/27 07:57:57;;;;;;;14.63;7.17;;;11.50;99.90;;;;;;5060561;28;20183;-64
2022/04/27 08:00:23;;;;;;;7.93;6.33;;;11.60;99.90;;;;;;5080555;28;20175;-64
2022/04/27 08:02:48;;;;;;;10.33;6.53;;;11.60;99.90;;;;;;5080786;28;20194;-65
2022/04/27 08:05:15;;;;;;;9.40;6.07;;;11.70;99.90;;;;;;5074055;28;20617;-64
2022/04/27 08:07:44;;;;;;;9.03;6.63;;;11.70;99.90;;;;;;5074484;28;20225;-65
2022/04/27 08:10:19;;;;;;;10.30;6.73;;;11.60;99.90;;;;;;5073465;28;20165;-64
2022/04/27 08:12:47;;;;;;;10.97;7.80;;;11.70;99.90;;;;;;5074859;28;20205;-66
2022/04/27 08:15:17;;;;;;;12.57;6.73;;;11.80;99.90;;;;;;5075131;28;20211;-66
2022/04/27 08:17:54;;;;;;;10.80;7.03;;;11.70;99.90;;;;;;5075036;28;20626;-65
2022/04/27 08:23:08;;;;;;;10.67;6.57;;;12.00;99.90;;;;;;5080750;28;20238;-65
2022/04/27 08:25:35;;;;;;;10.43;7.50;;;12.10;99.90;;;;;;5080408;28;20205;-66
2022/04/27 08:28:03;;;;;;;10.03;6.90;;;12.20;99.90;;;;;;5083449;28;20164;-65
2022/04/27 08:30:29;;;;;;;11.17;7.50;;;12.20;99.90;;;;;;5083882;28;20151;-67
2022/04/27 08:32:59;;;;;;;14.40;7.43;;;12.30;99.90;;;;;;5082926;28;20475;-65
2022/04/27 08:35:25;;;;;;;10.17;7.90;;;12.30;99.90;;;;;;5079003;28;20244;-64
2022/04/27 08:37:51;;;;;;;13.30;7.90;;;12.50;99.90;;;;;;5077210;28;20175;-65
2022/04/27 08:40:17;;;;;;;12.77;7.80;;;12.50;99.90;;;;;;5055162;28;20190;-64
2022/04/27 08:42:42;;;;;;;10.63;7.30;;;12.70;99.90;;;;;;5077098;28;20160;-65
2022/04/27 08:45:08;;;;;;;13.03;7.57;;;12.80;99.90;;;;;;5076744;28;20175;-66
2022/04/27 08:47:34;;;;;;;10.70;7.63;;;12.80;99.90;;;;;;5077012;28;20592;-63
2022/04/27 08:50:13;;;;;;;12.47;7.40;;;12.80;99.90;;;;;;5077148;28;20156;-64
2022/04/27 08:52:40;;;;;;;11.33;7.57;;;13.10;99.90;;;;;;5076756;28;20222;-64
2022/04/27 08:55:07;;;;;;;10.00;7.13;;;13.10;99.90;;;;;;5076798;28;20631;-65
2022/04/27 08:57:33;;;;;;;11.27;7.77;;;13.20;99.90;;;;;;5077129;28;20183;-65
2022/04/27 08:59:59;;;;;;;13.17;7.60;;;13.30;99.90;;;;;;5076570;28;20465;-64
2022/04/27 09:02:28;;;;;;;11.37;7.93;;;13.40;99.90;;;;;;5077000;28;20162;-65
2022/04/27 09:05:17;;;;;;;9.80;7.33;;;13.50;99.90;;;;;;5077973;28;20198;-64
2022/04/27 09:07:50;;;;;;;10.27;7.90;;;13.40;99.90;;;;;;5081001;28;20163;-66
2022/04/27 09:10:17;;;;;;;15.83;8.27;;;13.60;99.90;;;;;;5076432;28;20254;-66
2022/04/27 09:12:55;;;;;;;13.10;7.77;;;13.90;99.90;;;;;;5076491;28;20595;-65
2022/04/27 09:15:23;;;;;;;12.87;7.93;;;14.00;99.90;;;;;;5058805;28;20213;-64
2022/04/27 09:20:47;;;;;;;11.30;8.13;;;14.20;99.90;;;;;;5076480;28;20166;-64
2022/04/27 09:23:42;;;;;;;9.83;7.37;;;14.20;99.90;;;;;;5076211;28;20198;-65
2022/04/27 09:26:18;;;;;;;12.47;7.90;;;14.10;99.90;;;;;;5072669;28;20183;-65
2022/04/27 09:28:48;;;;;;;14.97;7.57;;;14.50;99.90;;;;;;5076185;28;20167;-65
2022/04/27 09:31:31;;;;;;;9.43;6.93;;;14.70;99.90;;;;;;5076504;28;20171;-64
2022/04/27 09:34:02;;;;;;;11.00;7.13;;;14.70;99.90;;;;;;5075438;28;20290;-64
2022/04/27 09:36:28;;;;;;;12.27;7.90;;;14.70;99.90;;;;;;5076390;28;20175;-64
2022/04/27 09:38:56;;;;;;;9.30;7.47;;;14.90;99.90;;;;;;5057703;28;20167;-64
2022/04/27 09:41:39;;;;;;;9.40;6.57;;;14.90;99.90;;;;;;5076884;28;20179;-65
2022/04/27 09:44:05;;;;;;;10.23;6.83;;;14.90;99.90;;;;;;5078568;28;20166;-64
2022/04/27 09:46:31;;;;;;;10.17;7.10;;;14.90;99.90;;;;;;5087431;28;20152;-65
2022/04/27 09:49:09;;;;;;;12.73;7.40;;;14.70;99.90;;;;;;5091768;28;20220;-65
2022/04/27 09:51:50;;;;;;;13.33;7.60;;;15.00;99.90;;;;;;5057841;28;20238;-65
2022/04/27 09:54:28;;;;;;;8.80;6.53;;;15.40;99.90;;;;;;5075292;28;20190;-64
2022/04/27 09:56:58;;;;;;;7.83;6.30;;;15.40;99.90;;;;;;5075353;28;20187;-66
2022/04/27 09:59:27;;;;;;;10.67;6.93;;;15.30;99.90;;;;;;5075365;28;20247;-65
2022/04/27 10:01:59;;;;;;;9.33;7.00;;;15.40;99.90;;;;;;5075705;28;20179;-64
2022/04/27 10:04:28;;;;;;;8.43;6.30;;;15.60;99.90;;;;;;5058226;28;20216;-64
2022/04/27 10:06:58;;;;;;;9.57;7.23;;;15.80;99.90;;;;;;5076160;28;20233;-64
2022/04/27 10:09:28;;;;;;;9.80;7.00;;;15.50;99.90;;;;;;5075297;28;20156;-64
2022/04/27 10:12:11;;;;;;;8.67;6.70;;;15.80;99.90;;;;;;5057676;28;20182;-65
2022/04/27 10:14:37;;;;;;;9.13;6.80;;;16.20;99.90;;;;;;5074906;28;20202;-65
2022/04/27 10:17:03;;;;;;;8.73;6.73;;;16.30;99.90;;;;;;5074851;28;20210;-65
2022/04/27 10:19:29;;;;;;;11.13;6.83;;;16.60;99.90;;;;;;5074886;28;20167;-64
2022/04/27 10:21:58;;;;;;;8.35;5.85;;;16.80;99.90;;;;;;5074995;28;20178;-66
2022/04/27 10:24:46;;;;;;;6.57;5.40;;;16.80;99.90;;;;;;5075786;28;20159;-65
2022/04/27 10:27:25;;;;;;;6.60;4.78;;;16.90;99.90;;;;;;5075365;28;20182;-65
2022/04/27 10:30:08;;;;;;;7.60;5.05;;;16.40;99.90;;;;;;5058861;28;20613;-65
2022/04/27 10:32:38;;;;;;;7.18;5.55;;;16.60;99.90;;;;;;5079689;28;20163;-65
2022/04/27 10:35:17;;;;;;;8.95;4.63;;;17.10;97.80;;;;;;5075005;28;20627;-64
2022/04/27 10:37:54;;;;;;;5.93;4.60;;;17.20;98.50;;;;;;5074881;28;20189;-66
2022/04/27 10:40:43;;;;;;;9.30;4.15;;;17.20;94.20;;;;;;5075003;28;20540;-65
2022/04/27 10:43:11;;;;;;;5.07;3.40;;;16.80;87.50;;;;;;5064266;28;20278;-66
2022/04/27 10:45:44;;;;;;;4.13;3.08;;;17.20;80.90;;;;;;5074625;28;20254;-65
2022/04/27 10:48:44;;;;;;;4.50;3.00;;;17.40;74.90;;;;;;5074853;28;20173;-64
2022/04/27 10:51:10;;;;;;;4.10;2.75;;;17.90;70.30;;;;;;5074286;28;20284;-63
2022/04/27 10:53:41;;;;;;;3.63;2.80;;;17.90;65.10;;;;;;5073924;28;20199;-66
2022/04/27 10:56:26;;;;;;;3.40;3.10;;;17.90;66.60;;;;;;5075061;28;20166;-66
2022/04/27 10:58:52;;;;;;;3.60;2.80;;;18.30;67.00;;;;;;5074626;28;20542;-67
2022/04/27 11:01:27;;;;;;;5.20;3.85;;;18.50;64.80;;;;;;5073724;28;20172;-65
2022/04/27 11:03:57;;;;;;;3.33;2.80;;;18.30;65.40;;;;;;5073992;28;20170;-66
2022/04/27 11:06:23;;;;;;;3.67;3.00;;;18.90;66.20;;;;;;5074683;28;20283;-64
2022/04/27 11:09:24;;;;;;;4.20;3.33;;;18.80;61.50;;;;;;5074029;28;20156;-66
2022/04/27 11:11:53;;;;;;;6.05;4.25;;;18.30;63.70;;;;;;5074175;28;20221;-64
2022/04/27 11:14:22;;;;;;;5.95;3.15;;;18.00;65.20;;;;;;5056508;28;20209;-65
2022/04/27 11:16:49;;;;;;;4.45;3.20;;;17.80;66.60;;;;;;5073702;28;20580;-65
2022/04/27 11:19:15;;;;;;;5.05;3.20;;;17.90;70.50;;;;;;5073372;28;20183;-65
2022/04/27 11:21:41;;;;;;;3.10;2.80;;;17.70;71.00;;;;;;5074181;28;20255;-66
2022/04/27 11:24:14;;;;;;;4.72;3.15;;;17.60;71.30;;;;;;5074351;28;20190;-67
2022/04/27 11:26:47;;;;;;;3.45;2.60;;;17.20;70.00;;;;;;5073415;28;20226;-65
2022/04/27 11:29:14;;;;;;;7.65;3.33;;;17.00;72.70;;;;;;5073551;28;20191;-65
2022/04/27 11:31:43;;;;;;;4.85;3.45;;;16.80;75.80;;;;;;5073399;28;20159;-65
2022/04/27 11:34:26;;;;;;;7.50;4.50;;;16.80;77.20;;;;;;5073689;28;20194;-64
2022/04/27 11:36:53;;;;;;;3.65;3.15;;;16.50;87.60;;;;;;5073595;28;20163;-66
2022/04/27 11:39:24;;;;;;;5.57;3.60;;;16.40;85.80;;;;;;5074027;28;20159;-64
2022/04/27 11:42:02;;;;;;;4.53;2.75;;;16.30;84.00;;;;;;5073639;28;20600;-65
2022/04/27 11:44:30;;;;;;;5.18;3.53;;;16.30;81.90;;;;;;5073941;28;20167;-64
2022/04/27 11:46:56;;;;;;;6.97;4.80;;;16.30;88.00;;;;;;5073853;28;20261;-64
2022/04/27 11:49:23;;;;;;;6.07;4.30;;;16.10;95.90;;;;;;5073781;28;20182;-66
2022/04/27 11:51:49;;;;;;;5.78;4.65;;;16.00;98.40;;;;;;5055597;28;20239;-65
2022/04/27 11:54:25;;;;;;;6.43;4.57;;;16.00;99.90;;;;;;5075424;28;20282;-65
2022/04/27 11:56:56;;;;;;;6.33;4.77;;;15.90;99.90;;;;;;5077692;28;20195;-65
2022/04/27 11:59:22;;;;;;;5.57;4.70;;;15.90;99.40;;;;;;5073852;28;20160;-66
2022/04/27 12:01:52;;;;;;;5.50;4.03;;;15.90;99.50;;;;;;5070010;28;20535;-66
2022/04/27 12:04:18;;;;;;;5.10;4.17;;;15.80;99.80;;;;;;5074040;28;20171;-66
2022/04/27 12:06:45;;;;;;;5.40;4.40;;;15.70;99.90;;;;;;5073862;28;20678;-65
2022/04/27 12:09:19;;;;;;;7.40;4.07;;;15.70;99.50;;;;;;5073934;28;20167;-66
2022/04/27 12:11:45;;;;;;;6.23;4.47;;;15.60;99.90;;;;;;5073861;28;20242;-65
2022/04/27 12:14:12;;;;;;;4.87;3.50;;;15.60;99.90;;;;;;5069476;28;20203;-64
2022/04/27 12:16:42;;;;;;;5.70;4.13;;;15.50;99.90;;;;;;5055910;28;20530;-66
2022/04/27 12:19:08;;;;;;;6.53;3.87;;;15.50;99.90;;;;;;5073230;28;20160;-65
2022/04/27 12:21:34;;;;;;;3.90;3.50;;;15.40;99.90;;;;;;5073411;28;20179;-64
2022/04/27 12:24:14;;;;;;;5.37;3.67;;;15.40;99.90;;;;;;5073322;28;20247;-65
2022/04/27 12:26:40;;;;;;;7.03;3.57;;;15.40;99.90;;;;;;5073202;28;20163;-65
2022/04/27 12:29:09;;;;;;;6.13;3.47;;;15.40;99.90;;;;;;5073304;28;20516;-67
2022/04/27 12:31:37;;;;;;;6.70;4.00;;;15.30;99.90;;;;;;5069735;28;20194;-66
2022/04/27 12:37:29;;;;;;;6.03;4.00;;;15.30;99.90;;;;;;5072863;28;20187;-65
2022/04/27 12:39:38;;;;;;;11.37;4.47;;;15.40;99.90;;;;;;5073793;28;20594;-66
2022/04/27 12:42:09;;;;;;;4.23;3.60;;;15.40;99.90;;;;;;5075919;28;20160;-67
2022/04/27 12:44:40;;;;;;;5.17;4.17;;;15.50;99.90;;;;;;5081391;28;20587;-65
2022/04/27 12:47:13;;;;;;;5.60;4.00;;;15.60;99.90;;;;;;5075340;28;20160;-64
2022/04/27 12:49:40;;;;;;;5.20;4.10;;;15.60;99.90;;;;;;5084871;28;20159;-65
2022/04/27 12:52:23;;;;;;;6.50;4.38;;;15.60;99.90;;;;;;5080042;28;20732;-67
2022/04/27 12:54:50;;;;;;;5.03;4.20;;;15.60;99.90;;;;;;5076409;28;20206;-66
2022/04/27 12:57:16;;;;;;;6.00;4.23;;;15.70;98.20;;;;;;5076377;28;20523;-64
2022/04/27 12:59:59;;;;;;;5.53;4.17;;;15.80;98.30;;;;;;5076170;28;20212;-66
2022/04/27 13:02:26;;;;;;;9.00;3.70;;;15.80;97.30;;;;;;5078815;28;20156;-65
2022/04/27 13:04:52;;;;;;;4.82;3.70;;;15.80;94.90;;;;;;5079072;28;20160;-70
2022/04/27 13:07:21;;;;;;;8.57;5.30;;;16.00;96.10;;;;;;5074816;28;20163;-65
2022/04/27 13:12:35;;;;;;;4.30;3.70;;;15.90;93.20;;;;;;5076372;28;20202;-66
2022/04/27 13:15:02;;;;;;;5.88;3.88;;;15.90;92.60;;;;;;5076271;28;20195;-65
2022/04/27 13:17:28;;;;;;;5.47;3.50;;;15.90;92.80;;;;;;5077355;28;20164;-66
2022/04/27 13:19:54;;;;;;;4.13;3.70;;;16.00;93.40;;;;;;5084664;28;20172;-66
2022/04/27 13:22:20;;;;;;;5.93;4.00;;;16.00;92.60;;;;;;5077982;28;20191;-66